Terminal Aerodrome Forecast
Issued by NWS

Home | Current Version | Previous Version | Graphics & Text | Print | Product List | Glossary On
Versions: 1 2 3 4 5 6 7 8 9 10 11 12 13 14 15 16 17 18
000
FTUS43 KICT 291700
TAFSLN
TAF
KSLN 291720Z 2918/3018 16009KT P6SM SKC
     FM300100 14008KT P6SM SCT200
     FM301200 17012KT P6SM VCTS BKN060CB OVC090=

USA.gov is the U.S. government's official web portal to all federal, state and local government web resources and services.